createdAt,value
2017-10-13T00:02:12.682Z,13.20
2017-10-13T00:07:25.613Z,13.20
2017-10-13T00:10:00.799Z,13.10
2017-10-13T00:12:44.282Z,13.10
2017-10-13T00:15:16.261Z,13.20
2017-10-13T00:20:34.917Z,13.10
2017-10-13T00:23:16.506Z,13.10
2017-10-13T00:25:54.815Z,13.10
2017-10-13T00:28:36.202Z,13.10
2017-10-13T00:31:06.248Z,13.10
2017-10-13T00:33:39.611Z,13.00
2017-10-13T00:36:13.874Z,13.00
2017-10-13T00:38:45.471Z,13.00
2017-10-13T00:41:17.219Z,13.00
2017-10-13T00:43:48.994Z,13.00
2017-10-13T00:46:21.024Z,13.00
2017-10-13T00:51:29.599Z,13.00
2017-10-13T00:54:00.676Z,13.00
2017-10-13T00:56:40.279Z,12.90
2017-10-13T00:59:16.132Z,12.90
2017-10-13T01:04:24.750Z,12.90
2017-10-13T01:09:50.402Z,12.90
2017-10-13T01:12:24.377Z,12.90
2017-10-13T01:25:21.629Z,12.80
2017-10-13T01:27:53.591Z,12.80
2017-10-13T01:30:37.436Z,12.80
2017-10-13T01:33:16.154Z,12.80
2017-10-13T01:35:50.983Z,12.80
2017-10-13T01:38:22.537Z,12.80
2017-10-13T01:40:59.771Z,12.80
2017-10-13T01:43:31.584Z,12.80
2017-10-13T01:48:38.503Z,12.80
2017-10-13T01:51:12.995Z,12.80
2017-10-13T01:53:47.620Z,12.70
2017-10-13T01:56:19.788Z,12.70
2017-10-13T01:58:53.607Z,12.70
2017-10-13T02:01:23.511Z,12.70
2017-10-13T02:03:56.290Z,12.70
2017-10-13T02:06:27.037Z,12.70
2017-10-13T02:14:24.420Z,12.60
2017-10-13T02:16:59.245Z,12.60
2017-10-13T02:22:19.352Z,12.50
2017-10-13T02:25:02.374Z,12.50
2017-10-13T02:27:33.264Z,12.50
2017-10-13T02:30:04.871Z,12.50
2017-10-13T02:37:56.312Z,12.40
2017-10-13T02:43:25.634Z,12.40
2017-10-13T02:45:57.398Z,12.40
2017-10-13T02:48:29.769Z,12.40
2017-10-13T02:51:07.262Z,12.40
2017-10-13T02:53:46.781Z,12.40
2017-10-13T02:56:25.518Z,12.40
2017-10-13T02:58:57.451Z,12.30
2017-10-13T03:01:31.020Z,12.30
2017-10-13T03:06:45.659Z,12.30
2017-10-13T03:09:17.204Z,12.30
2017-10-13T03:11:48.350Z,12.30
2017-10-13T03:14:22.367Z,12.30
2017-10-13T03:17:01.082Z,12.30
2017-10-13T03:19:38.775Z,12.20
2017-10-13T03:22:14.629Z,12.10
2017-10-13T03:24:44.746Z,12.10
2017-10-13T03:27:22.240Z,12.10
2017-10-13T03:29:54.408Z,12.10
2017-10-13T03:32:27.190Z,12.10
2017-10-13T03:40:22.126Z,12.10
2017-10-13T03:42:59.823Z,12.10
2017-10-13T03:45:42.631Z,12.00
2017-10-13T03:48:17.672Z,12.00
2017-10-13T03:50:56.305Z,12.10
2017-10-13T03:53:26.922Z,12.00
2017-10-13T03:58:45.590Z,12.00
2017-10-13T04:01:24.326Z,11.90
2017-10-13T04:03:55.651Z,11.90
2017-10-13T04:06:31.312Z,11.90
2017-10-13T04:09:05.322Z,11.90
2017-10-13T04:11:46.915Z,11.90
2017-10-13T04:14:18.868Z,11.90
2017-10-13T04:16:57.387Z,11.90
2017-10-13T04:19:40.407Z,11.90
2017-10-13T04:24:52.885Z,11.90
2017-10-13T04:27:23.670Z,11.90
2017-10-13T04:29:55.572Z,11.80
2017-10-13T04:32:26.365Z,11.80
2017-10-13T04:34:59.541Z,11.80
2017-10-13T04:37:33.571Z,11.80
2017-10-13T04:40:05.490Z,11.70
2017-10-13T04:45:22.764Z,11.70
2017-10-13T04:47:53.908Z,11.60
2017-10-13T04:50:30.565Z,11.60
2017-10-13T04:53:01.113Z,11.50
2017-10-13T04:55:31.025Z,11.50
2017-10-13T04:58:01.756Z,11.60
2017-10-13T05:00:31.673Z,11.60
2017-10-13T05:03:02.620Z,11.60
2017-10-13T05:05:32.525Z,11.50
2017-10-13T05:08:03.462Z,11.60
2017-10-13T05:10:34.818Z,11.50
2017-10-13T05:13:04.726Z,11.50
2017-10-13T05:15:34.638Z,11.30
2017-10-13T05:18:04.560Z,11.20
2017-10-13T05:20:34.676Z,11.20
2017-10-13T05:23:04.793Z,11.20
2017-10-13T05:25:34.866Z,11.20
2017-10-13T05:28:05.236Z,11.20
2017-10-13T05:30:35.153Z,11.20
2017-10-13T05:33:05.217Z,11.20
2017-10-13T05:35:35.134Z,11.20
2017-10-13T05:38:05.229Z,11.20
2017-10-13T05:40:35.220Z,11.20
2017-10-13T05:43:05.132Z,11.20
2017-10-13T05:45:35.049Z,11.20
2017-10-13T05:48:04.962Z,11.10
2017-10-13T05:50:34.873Z,11.10
2017-10-13T05:53:04.688Z,11.10
2017-10-13T05:55:34.395Z,11.10
2017-10-13T05:58:04.437Z,11.10
2017-10-13T06:00:34.431Z,11.10
2017-10-13T06:03:05.164Z,11.10
2017-10-13T06:05:35.283Z,11.10
2017-10-13T06:08:06.017Z,11.10
2017-10-13T06:10:36.144Z,11.10
2017-10-13T06:13:06.462Z,11.10
2017-10-13T06:15:36.554Z,11.10
2017-10-13T06:18:06.495Z,11.10
2017-10-13T06:20:36.394Z,11.10
2017-10-13T06:23:06.327Z,11.10
2017-10-13T06:25:36.851Z,11.00
2017-10-13T06:28:07.583Z,11.00
2017-10-13T06:30:37.681Z,11.00
2017-10-13T06:33:07.771Z,11.00
2017-10-13T06:35:37.960Z,11.00
2017-10-13T06:38:08.061Z,11.00
2017-10-13T06:40:39.002Z,11.00
2017-10-13T06:43:09.123Z,11.00
2017-10-13T06:45:39.441Z,11.00
2017-10-13T06:48:09.359Z,11.00
2017-10-13T06:50:39.422Z,11.00
2017-10-13T06:53:09.596Z,11.00
2017-10-13T06:55:39.509Z,11.00
2017-10-13T06:58:09.227Z,11.00
2017-10-13T07:00:39.338Z,11.00
2017-10-13T07:03:09.258Z,11.10
2017-10-13T07:05:39.308Z,11.10
2017-10-13T07:08:09.339Z,11.10
2017-10-13T07:10:39.205Z,11.10
2017-10-13T07:13:09.117Z,11.10
2017-10-13T07:15:39.850Z,11.10
2017-10-13T07:18:09.925Z,11.10
2017-10-13T07:20:40.500Z,11.20
2017-10-13T07:23:10.618Z,11.20
2017-10-13T07:25:40.736Z,11.20
2017-10-13T07:28:10.650Z,11.20
2017-10-13T07:30:40.567Z,11.30
2017-10-13T07:33:11.297Z,11.30
2017-10-13T07:35:41.417Z,11.20
2017-10-13T07:38:11.373Z,11.30
2017-10-13T07:40:41.455Z,11.30
2017-10-13T07:43:11.951Z,11.30
2017-10-13T07:45:42.056Z,11.30
2017-10-13T07:48:12.216Z,11.40
2017-10-13T07:50:42.951Z,11.30
2017-10-13T07:53:13.277Z,11.40
2017-10-13T07:55:44.419Z,11.40
2017-10-13T07:58:15.356Z,11.40
2017-10-13T08:00:45.543Z,11.40
2017-10-13T08:03:15.793Z,11.40
2017-10-13T08:05:45.918Z,11.40
2017-10-13T08:08:16.261Z,11.40
2017-10-13T08:10:46.623Z,11.40
2017-10-13T08:13:17.046Z,11.40
2017-10-13T08:15:47.181Z,11.50
2017-10-13T08:18:17.722Z,11.50
2017-10-13T08:20:48.042Z,11.50
2017-10-13T08:23:18.962Z,11.50
2017-10-13T08:25:48.926Z,11.60
2017-10-13T08:28:20.884Z,11.60
2017-10-13T08:30:51.210Z,11.60
2017-10-13T08:33:21.734Z,11.70
2017-10-13T08:35:52.261Z,11.60
2017-10-13T08:38:23.123Z,11.70
2017-10-13T08:40:53.121Z,11.70
2017-10-13T08:43:23.180Z,11.70
2017-10-13T08:45:53.972Z,11.80
2017-10-13T08:48:24.191Z,11.80
2017-10-13T08:50:54.161Z,11.80
2017-10-13T08:53:24.326Z,11.80
2017-10-13T08:55:54.241Z,11.80
2017-10-13T08:58:24.153Z,11.80
2017-10-13T09:00:54.653Z,11.80
2017-10-13T09:03:26.238Z,11.80
2017-10-13T09:05:56.762Z,11.90
2017-10-13T09:08:27.162Z,11.90
2017-10-13T09:10:57.215Z,11.90
2017-10-13T09:13:28.575Z,11.90
2017-10-13T09:15:59.295Z,12.00
2017-10-13T09:18:29.210Z,12.00
2017-10-13T09:20:59.722Z,12.00
2017-10-13T09:23:31.082Z,12.00
2017-10-13T09:26:01.191Z,12.00
2017-10-13T09:28:32.124Z,12.10
2017-10-13T09:31:02.056Z,12.10
2017-10-13T09:33:31.976Z,12.10
2017-10-13T09:36:02.701Z,12.10
2017-10-13T09:38:34.052Z,12.10
2017-10-13T09:41:04.167Z,12.20
2017-10-13T09:43:34.159Z,12.20
2017-10-13T09:46:04.816Z,12.30
2017-10-13T09:48:35.759Z,12.30
2017-10-13T09:51:05.659Z,12.40
2017-10-13T09:53:36.612Z,12.50
2017-10-13T09:56:06.721Z,12.50
2017-10-13T09:58:36.906Z,12.60
2017-10-13T10:01:07.578Z,12.70
2017-10-13T10:03:37.903Z,12.70
2017-10-13T10:06:08.600Z,12.70
2017-10-13T10:08:40.183Z,12.70
2017-10-13T10:11:10.518Z,12.80
2017-10-13T10:13:40.639Z,12.80
2017-10-13T10:16:10.918Z,12.80
2017-10-13T10:18:40.667Z,12.80
2017-10-13T10:21:10.790Z,12.80
2017-10-13T10:23:40.696Z,12.90
2017-10-13T10:26:11.234Z,12.90
2017-10-13T10:28:41.152Z,13.00
2017-10-13T10:31:11.060Z,13.00
2017-10-13T10:33:41.545Z,13.00
2017-10-13T10:36:11.505Z,13.00
2017-10-13T10:38:41.829Z,13.00
2017-10-13T10:41:11.887Z,13.10
2017-10-13T10:43:42.274Z,13.10
2017-10-13T10:46:12.341Z,13.20
2017-10-13T10:48:42.097Z,13.20
2017-10-13T10:51:13.024Z,13.20
2017-10-13T10:53:43.572Z,13.20
2017-10-13T10:56:13.478Z,13.20
2017-10-13T10:58:43.602Z,13.30
2017-10-13T11:01:13.841Z,13.30
2017-10-13T11:03:43.631Z,13.30
2017-10-13T11:06:14.160Z,13.30
2017-10-13T11:08:44.422Z,13.30
2017-10-13T11:11:15.421Z,13.30
2017-10-13T11:13:45.748Z,13.40
2017-10-13T11:16:15.662Z,13.30
2017-10-13T11:18:45.943Z,13.30
2017-10-13T11:21:15.897Z,13.30
2017-10-13T11:23:46.831Z,13.50
2017-10-13T11:26:16.769Z,13.40
2017-10-13T11:28:46.669Z,13.50
2017-10-13T11:31:16.793Z,13.60
2017-10-13T11:33:46.920Z,13.60
2017-10-13T11:36:16.824Z,13.70
2017-10-13T11:38:46.947Z,13.70
2017-10-13T11:41:17.874Z,13.70
2017-10-13T11:43:48.011Z,13.70
2017-10-13T11:46:17.908Z,13.70
2017-10-13T11:48:48.851Z,13.80
2017-10-13T11:51:19.327Z,13.80
2017-10-13T11:53:49.495Z,13.90
2017-10-13T11:56:19.827Z,14.00
2017-10-13T11:58:49.827Z,14.10
2017-10-13T12:01:19.878Z,14.10
2017-10-13T12:03:50.001Z,14.10
2017-10-13T12:06:20.097Z,14.00
2017-10-13T12:08:50.180Z,13.90
2017-10-13T12:11:20.306Z,13.90
2017-10-13T12:13:50.620Z,13.80
2017-10-13T12:16:20.700Z,13.80
2017-10-13T12:18:51.099Z,13.80
2017-10-13T12:21:21.012Z,13.80
2017-10-13T12:23:50.883Z,13.80
2017-10-13T12:26:21.816Z,13.80
2017-10-13T12:28:51.575Z,13.80
2017-10-13T12:31:22.472Z,13.80
2017-10-13T12:33:52.724Z,13.80
2017-10-13T12:36:23.985Z,13.80
2017-10-13T12:38:54.149Z,13.80
2017-10-13T12:41:24.141Z,13.80
2017-10-13T12:43:54.328Z,13.80
2017-10-13T12:46:24.526Z,13.80
2017-10-13T12:48:55.190Z,13.80
2017-10-13T12:51:25.799Z,13.80
2017-10-13T12:53:56.245Z,13.80
2017-10-13T12:56:28.005Z,13.80
2017-10-13T12:58:57.911Z,13.80
2017-10-13T13:01:28.242Z,13.80
2017-10-13T13:03:59.050Z,13.80
2017-10-13T13:06:29.512Z,13.80
2017-10-13T13:08:59.390Z,13.80
2017-10-13T13:11:29.126Z,13.80
2017-10-13T13:13:59.663Z,13.90
2017-10-13T13:16:29.980Z,13.90
2017-10-13T13:19:00.109Z,13.80
2017-10-13T13:21:30.149Z,13.80
2017-10-13T13:24:00.339Z,13.80
2017-10-13T13:26:30.415Z,13.80
2017-10-13T13:29:00.381Z,13.80
2017-10-13T13:31:30.491Z,13.80
2017-10-13T13:34:00.613Z,13.80
2017-10-13T13:36:30.730Z,13.80
2017-10-13T13:39:00.850Z,13.80
2017-10-13T13:41:30.987Z,13.70
2017-10-13T13:44:01.086Z,13.70
2017-10-13T13:46:31.399Z,13.70
2017-10-13T13:49:02.144Z,13.70
2017-10-13T13:51:32.241Z,13.70
2017-10-13T13:54:02.513Z,13.70
2017-10-13T13:56:32.507Z,13.60
2017-10-13T13:59:02.800Z,13.70
2017-10-13T14:01:33.152Z,13.70
2017-10-13T14:04:03.064Z,13.60
2017-10-13T14:06:34.017Z,13.60
2017-10-13T14:09:04.747Z,13.60
2017-10-13T14:11:35.266Z,13.60
2017-10-13T14:14:05.380Z,13.60
2017-10-13T14:16:36.276Z,13.60
2017-10-13T14:19:06.228Z,13.60
2017-10-13T14:21:36.669Z,13.60
2017-10-13T14:24:07.877Z,13.60
2017-10-13T14:26:37.777Z,13.60
2017-10-13T14:29:07.738Z,13.60
2017-10-13T14:31:37.855Z,13.60
2017-10-13T14:34:09.193Z,13.60
2017-10-13T14:36:39.269Z,13.60
2017-10-13T14:39:09.246Z,13.60
2017-10-13T14:41:39.422Z,13.60
2017-10-13T14:44:09.476Z,13.60
2017-10-13T14:46:40.004Z,13.60
2017-10-13T14:49:10.121Z,13.60
2017-10-13T14:51:40.039Z,13.60
2017-10-13T14:54:10.142Z,13.60
2017-10-13T14:56:40.077Z,13.60
2017-10-13T14:59:10.087Z,13.60
2017-10-13T15:01:41.701Z,13.60
2017-10-13T15:04:12.272Z,13.60
2017-10-13T15:06:42.459Z,13.60
2017-10-13T15:09:12.509Z,13.60
2017-10-13T15:11:42.637Z,13.60
2017-10-13T15:14:12.951Z,13.60
2017-10-13T15:16:43.235Z,13.60
2017-10-13T15:19:13.151Z,13.60
2017-10-13T15:21:43.301Z,13.60
2017-10-13T15:24:13.659Z,13.60
2017-10-13T15:26:44.047Z,13.60
2017-10-13T15:31:22.041Z,13.60
2017-10-13T15:35:58.903Z,13.60
2017-10-13T15:38:33.395Z,13.80
2017-10-13T15:43:10.893Z,14.50
2017-10-13T15:45:45.723Z,14.50
2017-10-13T15:48:31.367Z,14.60
2017-10-13T15:51:06.810Z,14.70
2017-10-13T15:53:37.131Z,14.80
2017-10-13T15:56:07.366Z,14.80
2017-10-13T15:58:37.646Z,14.90
2017-10-13T16:01:07.835Z,14.90
2017-10-13T16:03:38.343Z,14.90
2017-10-13T16:06:08.538Z,14.90
2017-10-13T16:08:39.090Z,14.90
2017-10-13T16:11:09.605Z,14.90
2017-10-13T16:13:39.970Z,15.00
2017-10-13T16:16:10.289Z,15.00
2017-10-13T16:18:40.388Z,15.00
2017-10-13T16:21:11.764Z,15.10
2017-10-13T16:23:42.573Z,15.00
2017-10-13T16:26:13.024Z,15.10
2017-10-13T16:28:44.933Z,15.10
2017-10-13T16:31:15.202Z,15.10
2017-10-13T16:33:46.253Z,15.10
2017-10-13T16:36:16.314Z,15.10
2017-10-13T16:38:46.490Z,15.10
2017-10-13T16:41:16.610Z,15.10
2017-10-13T16:43:46.920Z,15.20
2017-10-13T16:46:17.115Z,15.20
2017-10-13T16:48:48.330Z,15.20
2017-10-13T16:51:19.177Z,15.10
2017-10-13T16:53:50.273Z,15.10
2017-10-13T16:56:20.358Z,15.10
2017-10-13T16:58:50.873Z,15.10
2017-10-13T17:01:21.041Z,15.20
2017-10-13T17:03:51.162Z,15.20
2017-10-13T17:06:21.122Z,15.20
2017-10-13T17:08:51.946Z,15.10
2017-10-13T17:11:22.090Z,15.20
2017-10-13T17:13:52.458Z,15.20
2017-10-13T17:16:22.494Z,15.20
2017-10-13T17:18:52.486Z,15.20
2017-10-13T17:21:22.380Z,15.20
2017-10-13T17:23:52.526Z,15.20
2017-10-13T17:26:22.643Z,15.10
2017-10-13T17:28:53.578Z,15.20
2017-10-13T17:31:23.897Z,15.20
2017-10-13T17:33:54.044Z,15.20
2017-10-13T17:36:24.267Z,15.20
2017-10-13T17:38:54.337Z,15.20
2017-10-13T17:41:25.118Z,15.20
2017-10-13T17:43:55.484Z,15.10
2017-10-13T17:46:25.844Z,15.10
2017-10-13T17:48:56.076Z,15.10
2017-10-13T17:51:27.117Z,15.10
2017-10-13T17:53:57.435Z,15.10
2017-10-13T17:56:27.965Z,15.20
2017-10-13T17:58:58.482Z,15.10
2017-10-13T18:01:29.018Z,15.10
2017-10-13T18:03:59.151Z,15.20
2017-10-13T18:06:29.255Z,15.10
2017-10-13T18:08:59.504Z,15.10
2017-10-13T18:11:31.014Z,15.10
2017-10-13T18:14:01.018Z,15.10
2017-10-13T18:16:32.818Z,15.10
2017-10-13T18:19:03.089Z,15.10
2017-10-13T18:21:33.193Z,15.10
2017-10-13T18:24:04.648Z,15.10
2017-10-13T18:26:35.945Z,15.10
2017-10-13T18:29:06.695Z,15.10
2017-10-13T18:31:37.064Z,15.10
2017-10-13T18:34:07.333Z,15.10
2017-10-13T18:36:37.559Z,15.10
2017-10-13T18:39:07.602Z,15.10
2017-10-13T18:41:38.377Z,15.10
2017-10-13T18:44:08.433Z,15.10
2017-10-13T18:46:39.006Z,15.10
2017-10-13T18:49:09.047Z,15.10
2017-10-13T18:51:39.387Z,15.10
2017-10-13T18:54:09.391Z,15.10
2017-10-13T18:56:39.541Z,15.00
2017-10-13T18:59:10.168Z,15.00
2017-10-13T19:01:40.274Z,15.00
2017-10-13T19:04:10.776Z,15.00
2017-10-13T19:06:40.797Z,15.00
2017-10-13T19:09:10.792Z,15.00
2017-10-13T19:11:40.739Z,15.00
2017-10-13T19:14:10.674Z,15.00
2017-10-13T19:16:41.169Z,15.00
2017-10-13T19:19:11.218Z,15.00
2017-10-13T19:21:42.055Z,15.00
2017-10-13T19:24:12.664Z,15.00
2017-10-13T19:26:42.897Z,15.00
2017-10-13T19:29:13.257Z,15.00
2017-10-13T19:31:44.330Z,15.00
2017-10-13T19:34:14.516Z,15.00
2017-10-13T19:36:44.852Z,15.10
2017-10-13T19:39:15.350Z,15.00
2017-10-13T19:41:45.669Z,15.00
2017-10-13T19:44:16.018Z,15.00
2017-10-13T19:46:46.611Z,15.00
2017-10-13T19:49:17.399Z,15.00
2017-10-13T19:51:48.388Z,15.00
2017-10-13T19:54:18.934Z,15.00
2017-10-13T19:56:49.677Z,15.00
2017-10-13T19:59:19.969Z,15.00
2017-10-13T20:01:50.136Z,15.00
2017-10-13T20:04:20.233Z,15.00
2017-10-13T20:06:50.501Z,15.00
2017-10-13T20:09:21.467Z,15.00
2017-10-13T20:11:51.601Z,15.00
2017-10-13T20:14:22.134Z,15.00
2017-10-13T20:16:54.351Z,15.00
2017-10-13T20:19:24.822Z,15.00
2017-10-13T20:21:55.144Z,15.00
2017-10-13T20:24:25.631Z,15.00
2017-10-13T20:26:56.405Z,15.10
2017-10-13T20:29:27.767Z,15.00
2017-10-13T20:31:58.142Z,15.00
2017-10-13T20:34:28.355Z,15.00
2017-10-13T20:36:58.396Z,15.10
2017-10-13T20:39:29.265Z,15.00
2017-10-13T20:41:59.350Z,15.00
2017-10-13T20:44:29.477Z,15.00
2017-10-13T20:46:59.654Z,15.10
2017-10-13T20:49:29.994Z,15.00
2017-10-13T20:52:00.242Z,15.00
2017-10-13T20:54:30.662Z,15.10
2017-10-13T20:57:01.657Z,15.10
2017-10-13T20:59:31.858Z,15.00
2017-10-13T21:02:02.605Z,15.00
2017-10-13T21:04:32.792Z,15.00
2017-10-13T21:07:03.434Z,15.00
2017-10-13T21:09:33.709Z,15.00
2017-10-13T21:12:03.853Z,15.00
2017-10-13T21:14:34.060Z,15.00
2017-10-13T21:17:05.135Z,15.00
2017-10-13T21:19:35.778Z,15.10
2017-10-13T21:22:05.847Z,15.00
2017-10-13T21:24:36.921Z,15.00
2017-10-13T21:27:07.237Z,15.10
2017-10-13T21:29:38.205Z,15.00
2017-10-13T21:32:08.569Z,15.00
2017-10-13T21:34:38.538Z,15.00
2017-10-13T21:37:08.836Z,15.00
2017-10-13T21:39:38.944Z,15.00
2017-10-13T21:42:08.898Z,15.10
2017-10-13T21:44:39.067Z,15.00
2017-10-13T21:47:10.033Z,15.10
2017-10-13T21:49:40.086Z,15.10
2017-10-13T21:52:10.336Z,15.10
2017-10-13T21:54:40.682Z,15.10
2017-10-13T21:57:10.833Z,15.10
2017-10-13T21:59:41.517Z,15.10
2017-10-13T22:02:11.567Z,15.10
2017-10-13T22:04:45.899Z,15.00
2017-10-13T22:07:16.429Z,15.10
2017-10-13T22:09:47.236Z,15.10
2017-10-13T22:12:17.895Z,15.00
2017-10-13T22:14:48.013Z,15.00
2017-10-13T22:17:18.796Z,15.10
2017-10-13T22:19:49.291Z,15.00
2017-10-13T22:22:19.549Z,15.00
2017-10-13T22:24:49.593Z,15.00
2017-10-13T22:27:19.617Z,15.00
2017-10-13T22:29:52.133Z,15.00
2017-10-13T22:32:22.261Z,15.00
2017-10-13T22:34:52.168Z,15.00
2017-10-13T22:37:22.885Z,15.00
2017-10-13T22:39:54.325Z,15.00
2017-10-13T22:42:25.046Z,15.00
2017-10-13T22:44:55.185Z,15.00
2017-10-13T22:47:25.290Z,15.00
2017-10-13T22:49:55.210Z,15.00
2017-10-13T22:52:25.533Z,15.00
2017-10-13T22:54:55.685Z,15.00
2017-10-13T22:57:26.389Z,15.00
2017-10-13T22:59:56.622Z,15.00
2017-10-13T23:02:27.418Z,15.00
2017-10-13T23:04:57.142Z,15.00
2017-10-13T23:07:27.274Z,15.00
2017-10-13T23:09:57.748Z,15.00
2017-10-13T23:12:27.721Z,15.00
2017-10-13T23:14:57.907Z,15.00
2017-10-13T23:17:27.850Z,15.00
2017-10-13T23:19:58.686Z,15.00
2017-10-13T23:22:28.820Z,15.00
2017-10-13T23:24:58.722Z,15.00
2017-10-13T23:27:28.850Z,15.00
2017-10-13T23:29:58.944Z,15.00
2017-10-13T23:32:29.692Z,15.00
2017-10-13T23:35:00.016Z,15.00
2017-10-13T23:37:30.098Z,15.00
2017-10-13T23:40:00.052Z,15.00
2017-10-13T23:42:29.966Z,15.00
2017-10-13T23:45:00.082Z,15.00
2017-10-13T23:47:30.201Z,15.00
2017-10-13T23:50:00.337Z,15.00
2017-10-13T23:52:30.237Z,15.00
2017-10-13T23:55:00.562Z,15.00
2017-10-13T23:57:30.682Z,15.00
